createdAt,value
2023-03-22T00:02:04.394Z,87.18
2023-03-22T00:04:30.768Z,87.07
2023-03-22T00:06:57.159Z,86.97
2023-03-22T00:09:23.536Z,86.96
2023-03-22T00:11:49.879Z,87.07
2023-03-22T00:14:16.475Z,87.12
2023-03-22T00:16:42.846Z,87.25
2023-03-22T00:19:09.252Z,87.10
2023-03-22T00:21:35.657Z,87.09
2023-03-22T00:24:02.038Z,87.20
2023-03-22T00:26:28.651Z,87.18
2023-03-22T00:28:55.034Z,87.25
2023-03-22T00:31:21.441Z,87.26
2023-03-22T00:33:47.834Z,87.23
2023-03-22T00:36:14.228Z,87.23
2023-03-22T00:38:43.154Z,87.11
2023-03-22T00:41:10.314Z,87.12
2023-03-22T00:43:36.688Z,87.13
2023-03-22T00:46:03.059Z,87.22
2023-03-22T00:48:29.480Z,86.99
2023-03-22T00:50:55.851Z,87.13
2023-03-22T00:53:22.441Z,87.09
2023-03-22T00:55:48.820Z,87.07
2023-03-22T00:58:15.188Z,87.12
2023-03-22T01:00:41.924Z,87.20
2023-03-22T01:03:08.495Z,87.13
2023-03-22T01:05:34.882Z,87.10
2023-03-22T01:08:01.230Z,87.15
2023-03-22T01:10:27.813Z,87.14
2023-03-22T01:12:54.160Z,86.98
2023-03-22T01:15:20.548Z,87.07
2023-03-22T01:17:46.946Z,87.19
2023-03-22T01:20:13.343Z,87.13
2023-03-22T01:22:39.987Z,87.09
2023-03-22T01:25:06.352Z,87.14
2023-03-22T01:27:32.935Z,86.98
2023-03-22T01:29:59.303Z,86.99
2023-03-22T01:32:25.685Z,87.13
2023-03-22T01:34:52.057Z,87.21
2023-03-22T01:37:18.673Z,87.24
2023-03-22T01:39:45.061Z,87.20
2023-03-22T01:42:11.419Z,87.26
2023-03-22T01:44:37.812Z,87.09
2023-03-22T01:47:04.238Z,87.24
2023-03-22T01:49:30.755Z,87.01
2023-03-22T01:51:57.110Z,87.17
2023-03-22T01:54:23.463Z,87.08
2023-03-22T01:56:49.856Z,86.75
2023-03-22T01:59:16.466Z,86.43
2023-03-22T02:01:42.901Z,86.41
2023-03-22T02:04:09.351Z,86.68
2023-03-22T02:06:35.703Z,86.62
2023-03-22T02:09:02.046Z,86.41
2023-03-22T02:11:28.499Z,86.31
2023-03-22T02:13:54.855Z,86.32
2023-03-22T02:16:21.477Z,86.29
2023-03-22T02:18:47.873Z,86.21
2023-03-22T02:21:14.256Z,86.30
2023-03-22T02:23:40.631Z,86.32
2023-03-22T02:26:06.995Z,86.24
2023-03-22T02:28:33.565Z,86.51
2023-03-22T02:30:59.961Z,86.68
2023-03-22T02:33:45.602Z,86.48
2023-03-22T02:36:11.945Z,86.56
2023-03-22T02:38:38.273Z,86.85
2023-03-22T02:41:04.617Z,86.16
2023-03-22T02:43:31.169Z,86.73
2023-03-22T02:45:57.491Z,86.37
2023-03-22T02:48:24.067Z,86.16
2023-03-22T02:50:50.409Z,86.16
2023-03-22T02:53:16.972Z,86.17
2023-03-22T02:55:43.404Z,86.61
2023-03-22T02:58:09.738Z,86.90
2023-03-22T03:00:36.181Z,86.62
2023-03-22T03:03:02.799Z,86.82
2023-03-22T03:05:29.135Z,86.68
2023-03-22T03:07:55.475Z,86.71
2023-03-22T03:10:21.817Z,87.30
2023-03-22T03:12:48.387Z,87.06
2023-03-22T03:15:14.741Z,87.36
2023-03-22T03:17:41.089Z,87.01
2023-03-22T03:20:07.662Z,87.51
2023-03-22T03:22:34.015Z,87.36
2023-03-22T03:25:00.367Z,87.62
2023-03-22T03:27:26.718Z,87.68
2023-03-22T03:29:53.077Z,87.87
2023-03-22T03:32:19.644Z,87.73
2023-03-22T03:34:46.008Z,87.79
2023-03-22T03:37:12.371Z,87.73
2023-03-22T03:39:38.703Z,87.70
2023-03-22T03:42:05.049Z,88.10
2023-03-22T03:44:31.433Z,87.39
2023-03-22T03:46:57.768Z,88.04
2023-03-22T03:49:24.303Z,88.06
2023-03-22T03:51:50.639Z,87.99
2023-03-22T03:54:17.180Z,87.55
2023-03-22T03:56:43.809Z,87.84
2023-03-22T03:59:10.137Z,87.70
2023-03-22T04:01:36.469Z,88.11
2023-03-22T04:04:02.862Z,87.80
2023-03-22T04:06:29.420Z,87.58
2023-03-22T04:11:42.912Z,87.89
2023-03-22T04:14:09.478Z,87.46
2023-03-22T04:16:36.018Z,87.82
2023-03-22T04:19:02.803Z,88.19
2023-03-22T04:21:29.156Z,87.93
2023-03-22T04:23:55.512Z,87.91
2023-03-22T04:26:21.861Z,88.12
2023-03-22T04:28:48.221Z,87.96
2023-03-22T04:31:14.580Z,88.22
2023-03-22T04:33:40.962Z,88.15
2023-03-22T04:36:07.526Z,88.36
2023-03-22T04:38:34.083Z,88.02
2023-03-22T04:41:00.666Z,88.39
2023-03-22T04:43:27.033Z,88.39
2023-03-22T04:45:53.440Z,88.40
2023-03-22T04:48:20.044Z,88.32
2023-03-22T04:50:46.622Z,88.03
2023-03-22T04:53:12.967Z,88.17
2023-03-22T04:55:39.526Z,88.49
2023-03-22T04:58:05.879Z,88.27
2023-03-22T05:00:32.442Z,88.39
2023-03-22T05:02:58.920Z,88.21
2023-03-22T05:05:25.553Z,88.74
2023-03-22T05:07:51.890Z,88.74
2023-03-22T05:10:18.263Z,88.70
2023-03-22T05:12:44.611Z,88.93
2023-03-22T05:15:10.962Z,88.80
2023-03-22T05:17:37.317Z,88.76
2023-03-22T05:20:03.656Z,88.82
2023-03-22T05:22:30.015Z,89.14
2023-03-22T05:24:56.356Z,88.96
2023-03-22T05:27:22.685Z,89.07
2023-03-22T05:29:49.043Z,88.90
2023-03-22T05:32:15.384Z,89.06
2023-03-22T05:34:41.718Z,89.04
2023-03-22T05:37:08.053Z,89.02
2023-03-22T05:39:34.390Z,88.98
2023-03-22T05:42:00.738Z,89.02
2023-03-22T05:44:27.279Z,88.96
2023-03-22T05:46:53.696Z,88.98
2023-03-22T05:49:20.299Z,89.08
2023-03-22T05:51:46.776Z,89.13
2023-03-22T05:54:13.127Z,89.00
2023-03-22T05:56:39.462Z,89.05
2023-03-22T05:59:05.787Z,88.90
2023-03-22T06:01:32.127Z,88.90
2023-03-22T06:03:58.469Z,88.82
2023-03-22T06:06:25.086Z,88.77
2023-03-22T06:08:51.421Z,88.90
2023-03-22T06:11:18.737Z,88.81
2023-03-22T06:13:45.087Z,88.81
2023-03-22T06:16:11.528Z,88.77
2023-03-22T06:18:38.011Z,88.74
2023-03-22T06:21:04.600Z,88.82
2023-03-22T06:23:31.157Z,88.72
2023-03-22T06:25:57.511Z,88.60
2023-03-22T06:28:23.867Z,88.65
2023-03-22T06:30:50.235Z,88.68
2023-03-22T06:33:16.606Z,88.56
2023-03-22T06:35:43.003Z,88.47
2023-03-22T06:38:09.374Z,88.57
2023-03-22T06:40:35.934Z,88.56
2023-03-22T06:43:05.668Z,88.52
2023-03-22T06:45:33.731Z,88.33
2023-03-22T06:48:00.149Z,88.41
2023-03-22T06:50:26.531Z,88.51
2023-03-22T06:52:52.855Z,88.45
2023-03-22T06:55:21.449Z,88.45
2023-03-22T06:57:47.780Z,88.50
2023-03-22T07:00:14.130Z,88.49
2023-03-22T07:02:40.965Z,88.50
2023-03-22T07:05:07.314Z,88.66
2023-03-22T07:07:33.680Z,88.57
2023-03-22T07:10:00.031Z,88.83
2023-03-22T07:12:26.382Z,88.69
2023-03-22T07:14:52.905Z,88.62
2023-03-22T07:17:19.232Z,88.77
2023-03-22T07:19:45.571Z,88.65
2023-03-22T07:22:11.923Z,88.69
2023-03-22T07:24:47.197Z,88.74
2023-03-22T07:27:16.827Z,88.79
2023-03-22T07:29:43.159Z,88.62
2023-03-22T07:32:09.725Z,88.49
2023-03-22T07:34:38.045Z,88.28
2023-03-22T07:37:04.404Z,88.16
2023-03-22T07:39:31.549Z,87.94
2023-03-22T07:41:57.897Z,87.29
2023-03-22T07:44:24.235Z,86.83
2023-03-22T07:46:50.599Z,86.28
2023-03-22T07:49:16.967Z,85.94
2023-03-22T07:51:43.292Z,86.38
2023-03-22T07:54:09.642Z,85.86
2023-03-22T07:56:35.978Z,85.60
2023-03-22T07:59:02.884Z,85.58
2023-03-22T08:01:29.246Z,85.50
2023-03-22T08:03:55.592Z,85.20
2023-03-22T08:06:21.942Z,85.15
2023-03-22T08:08:48.283Z,84.79
2023-03-22T08:11:14.866Z,84.88
2023-03-22T08:13:41.227Z,84.67
2023-03-22T08:16:07.597Z,84.46
2023-03-22T08:18:33.946Z,84.45
2023-03-22T08:21:01.040Z,84.37
2023-03-22T08:23:40.428Z,84.51
2023-03-22T08:26:08.667Z,84.48
2023-03-22T08:28:34.992Z,84.33
2023-03-22T08:31:01.333Z,84.35
2023-03-22T08:33:27.665Z,84.19
2023-03-22T08:35:54.530Z,84.15
2023-03-22T08:38:21.116Z,84.06
2023-03-22T08:40:47.472Z,84.11
2023-03-22T08:43:14.670Z,84.08
2023-03-22T08:45:43.301Z,84.04
2023-03-22T08:48:09.933Z,84.14
2023-03-22T08:50:36.280Z,84.13
2023-03-22T08:53:03.397Z,84.25
2023-03-22T08:55:29.746Z,84.07
2023-03-22T08:57:56.081Z,83.96
2023-03-22T09:00:22.417Z,84.12
2023-03-22T09:02:48.773Z,84.02
2023-03-22T09:05:15.384Z,84.20
2023-03-22T09:07:41.732Z,84.14
2023-03-22T09:10:08.902Z,84.13
2023-03-22T09:12:35.228Z,84.09
2023-03-22T09:15:01.569Z,84.44
2023-03-22T09:17:27.909Z,84.17
2023-03-22T09:20:09.377Z,84.41
2023-03-22T09:22:37.684Z,84.35
2023-03-22T09:25:04.022Z,84.53
2023-03-22T09:27:30.371Z,84.46
2023-03-22T09:29:57.209Z,84.39
2023-03-22T09:32:24.400Z,84.50
2023-03-22T09:34:50.962Z,84.52
2023-03-22T09:37:17.296Z,84.43
2023-03-22T09:39:43.630Z,84.37
2023-03-22T09:42:10.202Z,84.49
2023-03-22T09:44:36.540Z,84.71
2023-03-22T09:47:02.881Z,84.88
2023-03-22T09:49:29.249Z,84.68
2023-03-22T09:51:55.658Z,84.19
2023-03-22T09:54:22.079Z,84.82
2023-03-22T09:56:49.659Z,85.06
2023-03-22T09:59:16.003Z,84.66
2023-03-22T10:01:44.101Z,84.91
2023-03-22T10:04:10.536Z,85.02
2023-03-22T10:06:36.978Z,85.09
2023-03-22T10:09:03.354Z,85.05
2023-03-22T10:11:29.767Z,84.96
2023-03-22T10:13:56.116Z,84.94
2023-03-22T10:16:23.261Z,85.15
2023-03-22T10:18:49.854Z,85.08
2023-03-22T10:21:16.210Z,85.10
2023-03-22T10:23:44.165Z,84.49
2023-03-22T10:26:10.567Z,84.25
2023-03-22T10:28:36.905Z,85.24
2023-03-22T10:31:05.673Z,85.38
2023-03-22T10:36:16.470Z,84.86
2023-03-22T10:38:42.843Z,85.32
2023-03-22T10:41:09.196Z,85.33
2023-03-22T10:43:35.555Z,85.27
2023-03-22T10:46:01.898Z,85.21
2023-03-22T10:48:28.274Z,85.21
2023-03-22T10:50:54.659Z,84.84
2023-03-22T10:53:21.012Z,84.97
2023-03-22T10:55:47.358Z,84.40
2023-03-22T10:58:13.699Z,84.32
2023-03-22T11:00:42.298Z,84.67
2023-03-22T11:03:08.918Z,85.19
2023-03-22T11:05:35.529Z,85.30
2023-03-22T11:08:01.865Z,85.28
2023-03-22T11:10:28.498Z,85.21
2023-03-22T11:12:54.899Z,84.86
2023-03-22T11:15:21.246Z,84.86
2023-03-22T11:17:47.596Z,85.18
2023-03-22T11:20:13.987Z,84.86
2023-03-22T11:22:40.344Z,84.80
2023-03-22T11:25:06.677Z,84.57
2023-03-22T11:27:33.054Z,84.51
2023-03-22T11:29:59.442Z,84.40
2023-03-22T11:32:26.141Z,84.51
2023-03-22T11:34:52.568Z,84.38
2023-03-22T11:37:18.941Z,84.33
2023-03-22T11:39:45.298Z,84.51
2023-03-22T11:42:11.655Z,84.43
2023-03-22T11:44:38.265Z,84.54
2023-03-22T11:47:04.752Z,84.65
2023-03-22T11:49:31.216Z,84.44
2023-03-22T11:51:57.560Z,84.56
2023-03-22T11:54:23.900Z,84.64
2023-03-22T11:56:50.223Z,84.94
2023-03-22T11:59:16.811Z,84.86
2023-03-22T12:01:43.200Z,84.71
2023-03-22T12:04:10.146Z,84.81
2023-03-22T12:06:36.645Z,84.73
2023-03-22T12:09:03.090Z,84.71
2023-03-22T12:11:29.436Z,84.64
2023-03-22T12:13:55.768Z,84.63
2023-03-22T12:16:24.313Z,84.71
2023-03-22T12:18:51.296Z,84.51
2023-03-22T12:21:17.650Z,84.77
2023-03-22T12:23:44.003Z,84.84
2023-03-22T12:26:10.326Z,84.67
2023-03-22T12:28:36.652Z,84.79
2023-03-22T12:31:03.058Z,84.80
2023-03-22T12:33:29.420Z,84.56
2023-03-22T12:35:55.810Z,84.80
2023-03-22T12:38:22.153Z,84.75
2023-03-22T12:40:48.513Z,84.59
2023-03-22T12:43:14.850Z,84.57
2023-03-22T12:45:41.316Z,84.65
2023-03-22T12:48:07.977Z,84.61
2023-03-22T12:50:34.379Z,84.49
2023-03-22T12:53:00.726Z,84.51
2023-03-22T12:55:27.063Z,84.77
2023-03-22T12:57:53.636Z,84.74
2023-03-22T13:00:19.965Z,84.68
2023-03-22T13:02:46.487Z,84.75
2023-03-22T13:05:12.897Z,84.68
2023-03-22T13:07:39.227Z,84.62
2023-03-22T13:10:05.559Z,84.55
2023-03-22T13:12:31.882Z,84.60
2023-03-22T13:14:58.233Z,84.68
2023-03-22T13:17:24.962Z,84.81
2023-03-22T13:19:51.714Z,84.96
2023-03-22T13:22:18.052Z,84.86
2023-03-22T13:24:44.618Z,84.86
2023-03-22T13:27:10.957Z,84.90
2023-03-22T13:29:37.313Z,84.97
2023-03-22T13:32:03.708Z,84.92
2023-03-22T13:34:30.109Z,84.85
2023-03-22T13:36:56.478Z,84.84
2023-03-22T13:39:22.815Z,84.86
2023-03-22T13:41:49.152Z,84.91
2023-03-22T13:44:15.441Z,85.00
2023-03-22T13:46:41.817Z,84.95
2023-03-22T13:49:08.221Z,84.99
2023-03-22T13:51:34.815Z,85.06
2023-03-22T13:54:01.145Z,84.98
2023-03-22T13:56:27.468Z,84.93
2023-03-22T13:58:53.934Z,85.04
2023-03-22T14:01:20.326Z,85.13
2023-03-22T14:03:46.791Z,85.18
2023-03-22T14:06:13.231Z,85.21
2023-03-22T14:08:39.586Z,85.22
2023-03-22T14:11:05.922Z,85.27
2023-03-22T14:13:32.255Z,85.28
2023-03-22T14:15:58.644Z,85.27
2023-03-22T14:18:25.024Z,85.30
2023-03-22T14:20:51.372Z,85.25
